CFG1LM LEPA-EDDL
Flight info
| Callsign | CFG1LM |
|---|---|
| Flight time | N/A |
| Altitude | 36000 |
| Route | MEROS N853 LUMAS DCT MAXIR DCT LUSOL DCT BODRU DCT OKTET DCT IRMAR DCT KINES DCT VANAS DCT MOBLO DCT UBIMA DCT GILIR DCT PENDU DCT IXILU DCT EPL DCT ROUSY DCT DIK/N0441F370 N853 ARCKY T853 NVO T857 BIKMU BIKMU1A |
| Aircraft | A321/M-SDE3FGHIRWY/LB1 |
Departure
| Time | 2026-04-30 20:48 |
|---|---|
| Airport | Palma de Mallorca Airport (LEPA) |
Arrival
| Time | N/A |
|---|---|
| Airport | Düsseldorf Airport (EDDL) |
| Time | Latitude | Longitude | Altitude | Speed | Heading |
|---|---|---|---|---|---|
| 2026-04-30 20:25 | 39.55030 | 2.73490 | 36 ft | 0 kts | 163° |
| 2026-04-30 20:35 | 39.55048 | 2.73484 | 36 ft | 4 kts | 163° |
| 2026-04-30 20:35 | 39.55074 | 2.73474 | 36 ft | 4 kts | 163° |
| 2026-04-30 20:35 | 39.55104 | 2.73435 | 33 ft | 4 kts | 67° |
| 2026-04-30 20:36 | 39.55094 | 2.73412 | 33 ft | 4 kts | 59° |
| 2026-04-30 20:36 | 39.55090 | 2.73403 | 33 ft | 0 kts | 59° |
| 2026-04-30 20:39 | 39.55097 | 2.73419 | 33 ft | 0 kts | 63° |
| 2026-04-30 20:39 | 39.55106 | 2.73442 | 33 ft | 7 kts | 64° |
| 2026-04-30 20:39 | 39.55144 | 2.73531 | 36 ft | 14 kts | 59° |
| 2026-04-30 20:40 | 39.55169 | 2.73743 | 36 ft | 11 kts | 115° |
| 2026-04-30 20:40 | 39.55178 | 2.73826 | 36 ft | 8 kts | 79° |
| 2026-04-30 20:40 | 39.55143 | 2.73875 | 36 ft | 7 kts | 148° |
| 2026-04-30 20:41 | 39.55050 | 2.73949 | 36 ft | 11 kts | 148° |
| 2026-04-30 20:41 | 39.54997 | 2.73992 | 36 ft | 15 kts | 148° |
| 2026-04-30 20:41 | 39.54857 | 2.74101 | 36 ft | 15 kts | 149° |
| 2026-04-30 20:41 | 39.54770 | 2.74090 | 35 ft | 13 kts | 232° |
| 2026-04-30 20:42 | 39.54723 | 2.73994 | 36 ft | 12 kts | 238° |
| 2026-04-30 20:42 | 39.54693 | 2.73930 | 36 ft | 12 kts | 239° |
| 2026-04-30 20:42 | 39.54607 | 2.73739 | 36 ft | 12 kts | 240° |
| 2026-04-30 20:43 | 39.54562 | 2.73643 | 36 ft | 12 kts | 238° |
| 2026-04-30 20:43 | 39.54516 | 2.73549 | 36 ft | 12 kts | 238° |
| 2026-04-30 20:43 | 39.54469 | 2.73453 | 36 ft | 13 kts | 238° |
| 2026-04-30 20:44 | 39.54381 | 2.73260 | 36 ft | 12 kts | 241° |
| 2026-04-30 20:44 | 39.54336 | 2.73167 | 35 ft | 12 kts | 237° |
| 2026-04-30 20:44 | 39.54225 | 2.73019 | 36 ft | 11 kts | 173° |
| 2026-04-30 20:45 | 39.54169 | 2.73190 | 36 ft | 12 kts | 95° |
| 2026-04-30 20:45 | 39.54180 | 2.73287 | 33 ft | 3 kts | 59° |
| 2026-04-30 20:46 | 39.54188 | 2.73305 | 35 ft | 11 kts | 59° |
| 2026-04-30 20:47 | 39.54728 | 2.74442 | 36 ft | 133 kts | 58° |
| 2026-04-30 20:47 | 39.55273 | 2.75586 | 293 ft | 152 kts | 59° |
| 2026-04-30 20:48 | 39.56331 | 2.77896 | 1461 ft | 155 kts | 60° |
| 2026-04-30 20:48 | 39.56912 | 2.79178 | 1692 ft | 177 kts | 60° |
| 2026-04-30 20:48 | 39.57577 | 2.80643 | 1896 ft | 199 kts | 60° |
| 2026-04-30 20:48 | 39.58320 | 2.82273 | 2037 ft | 222 kts | 60° |
| 2026-04-30 20:49 | 39.59152 | 2.84097 | 2326 ft | 245 kts | 60° |
| 2026-04-30 20:49 | 39.60021 | 2.86006 | 3228 ft | 238 kts | 59° |
| 2026-04-30 20:49 | 39.60829 | 2.87783 | 4378 ft | 223 kts | 58° |
| 2026-04-30 20:50 | 39.62423 | 2.91278 | 5635 ft | 235 kts | 58° |
| 2026-04-30 20:50 | 39.63281 | 2.93224 | 5893 ft | 259 kts | 59° |
| 2026-04-30 20:50 | 39.64199 | 2.95345 | 6317 ft | 274 kts | 59° |
| 2026-04-30 20:50 | 39.65129 | 2.97506 | 6923 ft | 281 kts | 59° |
| 2026-04-30 20:51 | 39.66091 | 2.99743 | 7574 ft | 286 kts | 59° |
| 2026-04-30 20:51 | 39.68061 | 3.04301 | 8886 ft | 295 kts | 60° |
| 2026-04-30 20:51 | 39.69080 | 3.06654 | 9504 ft | 301 kts | 60° |
| 2026-04-30 20:52 | 39.70123 | 3.09070 | 10086 ft | 308 kts | 60° |
| 2026-04-30 20:52 | 39.71192 | 3.11544 | 10292 ft | 329 kts | 60° |
| 2026-04-30 20:52 | 39.73438 | 3.16744 | 10010 ft | 324 kts | 60° |
| 2026-04-30 20:53 | 39.74514 | 3.19244 | 10013 ft | 305 kts | 60° |
| 2026-04-30 20:53 | 39.75509 | 3.21560 | 10009 ft | 287 kts | 60° |
| 2026-04-30 20:53 | 39.76460 | 3.23781 | 10026 ft | 277 kts | 60° |
| 2026-04-30 20:54 | 39.78015 | 3.28280 | 10008 ft | 272 kts | 85° |
| 2026-04-30 20:54 | 39.77843 | 3.30680 | 10023 ft | 270 kts | 111° |
| 2026-04-30 20:54 | 39.76902 | 3.32772 | 10013 ft | 265 kts | 137° |
| 2026-04-30 20:55 | 39.73696 | 3.34548 | 10011 ft | 253 kts | 186° |
| 2026-04-30 20:55 | 39.72007 | 3.34061 | 10023 ft | 248 kts | 208° |
| 2026-04-30 20:55 | 39.70624 | 3.32783 | 10014 ft | 244 kts | 230° |
| 2026-04-30 20:56 | 39.68784 | 3.29090 | 10010 ft | 243 kts | 242° |
| 2026-04-30 20:56 | 39.67959 | 3.27170 | 10015 ft | 243 kts | 242° |
| 2026-04-30 20:56 | 39.66326 | 3.23339 | 10012 ft | 243 kts | 242° |
| 2026-04-30 20:57 | 39.65757 | 3.21287 | 10012 ft | 242 kts | 262° |
| 2026-04-30 20:57 | 39.65809 | 3.19111 | 10019 ft | 244 kts | 282° |
| 2026-04-30 20:57 | 39.66493 | 3.17105 | 10018 ft | 248 kts | 304° |
| 2026-04-30 20:58 | 39.69433 | 3.14799 | 10011 ft | 260 kts | 351° |
| 2026-04-30 20:58 | 39.71235 | 3.14988 | 10022 ft | 267 kts | 15° |
| 2026-04-30 20:58 | 39.72863 | 3.16168 | 10018 ft | 272 kts | 41° |
| 2026-04-30 20:58 | 39.74020 | 3.18132 | 10014 ft | 275 kts | 58° |
| 2026-04-30 20:59 | 39.75941 | 3.22470 | 10020 ft | 276 kts | 60° |
| 2026-04-30 20:59 | 39.76853 | 3.24613 | 10024 ft | 273 kts | 60° |
| 2026-04-30 21:00 | 39.78052 | 3.29212 | 10015 ft | 271 kts | 96° |
| 2026-04-30 21:00 | 39.76372 | 3.33350 | 10023 ft | 263 kts | 147° |
| 2026-04-30 21:01 | 39.73003 | 3.34381 | 10016 ft | 251 kts | 196° |
| 2026-04-30 21:01 | 39.71423 | 3.33535 | 10020 ft | 246 kts | 218° |
| 2026-04-30 21:01 | 39.69336 | 3.30155 | 9309 ft | 241 kts | 241° |
| 2026-04-30 21:02 | 39.68502 | 3.28253 | 8882 ft | 241 kts | 242° |
| 2026-04-30 21:02 | 39.67686 | 3.26347 | 8469 ft | 242 kts | 242° |
| 2026-04-30 21:02 | 39.66874 | 3.24443 | 8101 ft | 241 kts | 242° |
| 2026-04-30 21:02 | 39.66106 | 3.22542 | 8006 ft | 240 kts | 250° |
| 2026-04-30 21:03 | 39.65787 | 3.20401 | 8014 ft | 242 kts | 271° |
| 2026-04-30 21:03 | 39.66104 | 3.18266 | 8013 ft | 243 kts | 292° |
| 2026-04-30 21:03 | 39.67038 | 3.16437 | 8018 ft | 245 kts | 315° |
| 2026-04-30 21:03 | 39.68446 | 3.15224 | 8011 ft | 248 kts | 338° |
| 2026-04-30 21:04 | 39.70159 | 3.14817 | 8016 ft | 252 kts | 1° |
| 2026-04-30 21:04 | 39.71863 | 3.15332 | 8016 ft | 255 kts | 25° |
| 2026-04-30 21:04 | 39.74269 | 3.18636 | 8016 ft | 259 kts | 58° |
| 2026-04-30 21:05 | 39.75178 | 3.20671 | 8020 ft | 260 kts | 60° |
| 2026-04-30 21:05 | 39.76058 | 3.22721 | 8019 ft | 260 kts | 60° |
| 2026-04-30 21:05 | 39.76932 | 3.24780 | 8015 ft | 258 kts | 60° |
| 2026-04-30 21:05 | 39.77754 | 3.26826 | 8015 ft | 258 kts | 70° |
| 2026-04-30 21:06 | 39.77989 | 3.29118 | 8020 ft | 257 kts | 98° |
| 2026-04-30 21:06 | 39.77402 | 3.31296 | 8018 ft | 256 kts | 125° |
| 2026-04-30 21:06 | 39.76144 | 3.32892 | 8020 ft | 253 kts | 152° |
| 2026-04-30 21:06 | 39.74496 | 3.33589 | 8016 ft | 249 kts | 179° |
| 2026-04-30 21:07 | 39.72801 | 3.33274 | 8020 ft | 247 kts | 205° |
| 2026-04-30 21:07 | 39.71183 | 3.32353 | 8023 ft | 267 kts | 203° |
| 2026-04-30 21:07 | 39.69446 | 3.31368 | 7902 ft | 273 kts | 212° |
| 2026-04-30 21:07 | 39.67907 | 3.29951 | 7180 ft | 271 kts | 220° |
| 2026-04-30 21:08 | 39.66544 | 3.28309 | 6777 ft | 263 kts | 235° |
| 2026-04-30 21:08 | 39.65564 | 3.26273 | 6774 ft | 270 kts | 241° |
| 2026-04-30 21:08 | 39.64658 | 3.24136 | 6202 ft | 269 kts | 242° |
| 2026-04-30 21:08 | 39.63768 | 3.22002 | 6029 ft | 274 kts | 242° |
| 2026-04-30 21:09 | 39.62855 | 3.19799 | 6014 ft | 275 kts | 242° |
| 2026-04-30 21:09 | 39.61942 | 3.17597 | 6015 ft | 276 kts | 242° |
| 2026-04-30 21:09 | 39.61045 | 3.15428 | 6015 ft | 276 kts | 242° |
| 2026-04-30 21:09 | 39.60138 | 3.13231 | 6016 ft | 276 kts | 242° |
| 2026-04-30 21:10 | 39.59235 | 3.11039 | 6014 ft | 276 kts | 242° |
| 2026-04-30 21:10 | 39.58325 | 3.08835 | 6015 ft | 276 kts | 242° |
| 2026-04-30 21:10 | 39.57418 | 3.06653 | 5693 ft | 271 kts | 242° |
| 2026-04-30 21:10 | 39.56535 | 3.04508 | 4918 ft | 271 kts | 243° |
| 2026-04-30 21:11 | 39.55636 | 3.02376 | 4244 ft | 270 kts | 242° |
| 2026-04-30 21:11 | 39.54731 | 3.00222 | 4065 ft | 272 kts | 242° |
| 2026-04-30 21:11 | 39.53834 | 2.98078 | 4011 ft | 274 kts | 242° |
| 2026-04-30 21:11 | 39.52915 | 2.95876 | 4012 ft | 275 kts | 242° |
| 2026-04-30 21:12 | 39.52011 | 2.93717 | 4012 ft | 276 kts | 242° |
| 2026-04-30 21:12 | 39.51099 | 2.91525 | 4010 ft | 276 kts | 242° |
| 2026-04-30 21:12 | 39.50189 | 2.89332 | 4007 ft | 275 kts | 242° |
| 2026-04-30 21:12 | 39.49289 | 2.87169 | 4007 ft | 275 kts | 242° |
| 2026-04-30 21:13 | 39.48369 | 2.84962 | 4005 ft | 275 kts | 242° |
| 2026-04-30 21:13 | 39.47463 | 2.82800 | 4004 ft | 276 kts | 242° |
| 2026-04-30 21:13 | 39.46540 | 2.80606 | 4010 ft | 276 kts | 242° |
| 2026-04-30 21:13 | 39.45639 | 2.78452 | 4010 ft | 275 kts | 242° |
| 2026-04-30 21:14 | 39.44733 | 2.76280 | 4010 ft | 274 kts | 242° |
| 2026-04-30 21:14 | 39.43824 | 2.74091 | 4008 ft | 274 kts | 243° |
| 2026-04-30 21:14 | 39.42920 | 2.71917 | 4009 ft | 275 kts | 242° |
| 2026-04-30 21:14 | 39.42009 | 2.69738 | 3877 ft | 273 kts | 242° |
| 2026-04-30 21:15 | 39.41115 | 2.67594 | 3179 ft | 270 kts | 242° |
| 2026-04-30 21:15 | 39.40241 | 2.65471 | 2516 ft | 267 kts | 242° |
| 2026-04-30 21:15 | 39.39375 | 2.63332 | 2341 ft | 269 kts | 242° |
| 2026-04-30 21:15 | 39.38516 | 2.61192 | 2304 ft | 270 kts | 242° |
| 2026-04-30 21:16 | 39.37675 | 2.59097 | 2294 ft | 248 kts | 242° |
| 2026-04-30 21:16 | 39.36894 | 2.57152 | 2300 ft | 241 kts | 242° |
| 2026-04-30 21:16 | 39.36286 | 2.55139 | 2297 ft | 239 kts | 264° |
| 2026-04-30 21:16 | 39.36493 | 2.53075 | 2296 ft | 235 kts | 297° |
| 2026-04-30 21:17 | 39.37488 | 2.51446 | 2300 ft | 230 kts | 326° |
| 2026-04-30 21:17 | 39.38919 | 2.50607 | 2308 ft | 225 kts | 353° |
| 2026-04-30 21:17 | 39.40437 | 2.50697 | 2302 ft | 221 kts | 20° |
| 2026-04-30 21:17 | 39.41833 | 2.51486 | 2310 ft | 220 kts | 27° |
| 2026-04-30 21:18 | 39.43224 | 2.52337 | 2305 ft | 220 kts | 27° |
| 2026-04-30 21:18 | 39.44598 | 2.53173 | 2308 ft | 221 kts | 27° |
| 2026-04-30 21:18 | 39.45992 | 2.54041 | 2308 ft | 221 kts | 33° |
| 2026-04-30 21:18 | 39.47160 | 2.55281 | 2301 ft | 216 kts | 51° |
| 2026-04-30 21:19 | 39.47979 | 2.56866 | 2308 ft | 215 kts | 59° |
| 2026-04-30 21:19 | 39.48764 | 2.58532 | 2300 ft | 218 kts | 59° |
| 2026-04-30 21:19 | 39.49567 | 2.60223 | 2077 ft | 222 kts | 59° |
| 2026-04-30 21:19 | 39.50360 | 2.61890 | 1717 ft | 211 kts | 59° |
| 2026-04-30 21:20 | 39.51100 | 2.63447 | 1412 ft | 194 kts | 59° |
| 2026-04-30 21:20 | 39.51771 | 2.64859 | 1156 ft | 173 kts | 59° |
| 2026-04-30 21:20 | 39.52364 | 2.66110 | 932 ft | 156 kts | 60° |
| 2026-04-30 21:20 | 39.52919 | 2.67280 | 733 ft | 149 kts | 60° |
| 2026-04-30 21:21 | 39.53456 | 2.68414 | 541 ft | 146 kts | 60° |
| 2026-04-30 21:21 | 39.54015 | 2.69653 | 891 ft | 164 kts | 60° |
| 2026-04-30 21:21 | 39.55199 | 2.72352 | 1345 ft | 190 kts | 59° |
| 2026-04-30 21:22 | 39.55949 | 2.73853 | 1475 ft | 207 kts | 53° |
| 2026-04-30 21:22 | 39.59844 | 2.76766 | 2817 ft | 222 kts | 30° |
| 2026-04-30 21:23 | 39.61184 | 2.77751 | 2982 ft | 225 kts | 31° |
| 2026-04-30 21:23 | 39.62549 | 2.78762 | 3008 ft | 224 kts | 31° |
| 2026-04-30 21:23 | 39.65244 | 2.80728 | 3010 ft | 224 kts | 30° |
| 2026-04-30 21:24 | 39.66660 | 2.81579 | 3013 ft | 225 kts | 16° |
| 2026-04-30 21:24 | 39.68223 | 2.81848 | 3012 ft | 226 kts | 1° |
| 2026-04-30 21:24 | 39.69764 | 2.81531 | 3014 ft | 229 kts | 342° |
| 2026-04-30 21:24 | 39.71157 | 2.80515 | 3010 ft | 232 kts | 320° |
| 2026-04-30 21:25 | 39.72363 | 2.77450 | 3008 ft | 237 kts | 274° |
| 2026-04-30 21:25 | 39.71913 | 2.74710 | 3008 ft | 238 kts | 238° |
| 2026-04-30 21:25 | 39.71296 | 2.73509 | 3005 ft | 238 kts | 233° |
| 2026-04-30 21:26 | 39.69263 | 2.70094 | 3007 ft | 239 kts | 231° |
| 2026-04-30 21:26 | 39.68248 | 2.68407 | 3005 ft | 239 kts | 231° |
| 2026-04-30 21:27 | 39.66180 | 2.65020 | 3010 ft | 241 kts | 232° |
| 2026-04-30 21:27 | 39.65130 | 2.63326 | 3009 ft | 241 kts | 231° |
| 2026-04-30 21:27 | 39.64072 | 2.61627 | 3006 ft | 239 kts | 231° |
| 2026-04-30 21:28 | 39.61989 | 2.58288 | 3007 ft | 237 kts | 231° |
| 2026-04-30 21:28 | 39.60957 | 2.56620 | 3007 ft | 237 kts | 232° |
| 2026-04-30 21:28 | 39.58899 | 2.53276 | 3010 ft | 241 kts | 232° |
| 2026-04-30 21:29 | 39.57851 | 2.51573 | 2998 ft | 239 kts | 231° |
| 2026-04-30 21:29 | 39.54051 | 2.47679 | 3007 ft | 236 kts | 187° |
| 2026-04-30 21:30 | 39.50858 | 2.48136 | 3008 ft | 232 kts | 154° |
| 2026-04-30 21:31 | 39.47755 | 2.52539 | 2960 ft | 225 kts | 103° |